createdAt,value
2022-12-17T00:01:29.092Z,26.40
2022-12-17T00:03:30.985Z,24.40
2022-12-17T00:05:32.968Z,24.02
2022-12-17T00:07:36.182Z,21.30
2022-12-17T00:09:37.972Z,19.60
2022-12-17T00:11:39.908Z,21.08
2022-12-17T00:13:41.831Z,23.40
2022-12-17T00:15:43.801Z,18.73
2022-12-17T00:17:47.082Z,23.50
2022-12-17T00:19:48.995Z,19.33
2022-12-17T00:21:51.090Z,20.90
2022-12-17T00:23:53.786Z,18.10
2022-12-17T00:25:58.490Z,18.60
2022-12-17T00:28:00.289Z,20.17
2022-12-17T00:30:02.037Z,18.50
2022-12-17T00:32:06.923Z,21.88
2022-12-17T00:34:10.111Z,17.67
2022-12-17T00:36:11.887Z,20.00
2022-12-17T00:38:15.694Z,20.85
2022-12-17T00:40:17.567Z,21.02
2022-12-17T00:42:22.467Z,18.70
2022-12-17T00:44:24.517Z,17.75
2022-12-17T00:46:26.331Z,19.35
2022-12-17T00:48:28.052Z,18.50
2022-12-17T00:50:31.676Z,19.85
2022-12-17T00:52:33.456Z,19.10
2022-12-17T00:54:35.172Z,25.65
2022-12-17T00:56:36.957Z,22.65
2022-12-17T00:58:38.882Z,22.45
2022-12-17T01:00:40.644Z,28.35
2022-12-17T01:02:42.632Z,25.65
2022-12-17T01:04:44.592Z,20.58
2022-12-17T01:06:47.943Z,17.50
2022-12-17T01:08:49.769Z,23.33
2022-12-17T01:10:51.695Z,22.42
2022-12-17T01:12:55.317Z,21.52
2022-12-17T01:14:58.025Z,21.05
2022-12-17T01:16:59.822Z,24.25
2022-12-17T01:19:01.917Z,20.80
2022-12-17T01:21:03.896Z,21.80
2022-12-17T01:23:08.977Z,24.58
2022-12-17T01:25:10.729Z,23.98
2022-12-17T01:27:12.519Z,23.55
2022-12-17T01:29:17.154Z,22.20
2022-12-17T01:31:19.139Z,25.38
2022-12-17T01:33:21.333Z,24.85
2022-12-17T01:35:23.599Z,18.83
2022-12-17T01:37:25.329Z,21.65
2022-12-17T01:39:28.644Z,25.05
2022-12-17T01:41:30.591Z,21.08
2022-12-17T01:43:37.099Z,24.08
2022-12-17T01:45:43.559Z,22.02
2022-12-17T01:47:49.869Z,18.92
2022-12-17T01:49:51.880Z,23.50
2022-12-17T01:51:54.086Z,20.35
2022-12-17T01:53:56.423Z,20.23
2022-12-17T01:56:09.725Z,24.02
2022-12-17T01:58:11.564Z,20.60
2022-12-17T02:00:16.057Z,21.33
2022-12-17T02:02:17.902Z,21.63
2022-12-17T02:04:20.377Z,21.65
2022-12-17T02:06:26.639Z,24.02
2022-12-17T02:08:37.311Z,23.00
2022-12-17T02:10:46.230Z,21.15
2022-12-17T02:12:52.873Z,21.95
2022-12-17T02:15:01.304Z,23.35
2022-12-17T02:17:08.651Z,22.85
2022-12-17T02:19:26.431Z,21.85
2022-12-17T02:21:30.969Z,21.20
2022-12-17T02:23:44.626Z,23.58
2022-12-17T02:25:52.125Z,20.27
2022-12-17T02:27:55.648Z,20.77
2022-12-17T02:30:02.600Z,18.52
2022-12-17T02:32:07.402Z,20.23
2022-12-17T02:34:09.126Z,20.92
2022-12-17T02:36:10.999Z,22.60
2022-12-17T02:38:20.875Z,23.98
2022-12-17T02:40:24.905Z,21.92
2022-12-17T02:42:28.853Z,19.92
2022-12-17T02:44:35.021Z,21.25
2022-12-17T02:46:38.461Z,19.35
2022-12-17T02:48:40.802Z,20.77
2022-12-17T02:50:42.739Z,19.50
2022-12-17T02:52:47.925Z,22.40
2022-12-17T02:54:49.677Z,19.95
2022-12-17T02:56:51.588Z,20.92
2022-12-17T02:58:53.329Z,19.80
2022-12-17T03:00:56.903Z,20.48
2022-12-17T03:02:58.680Z,21.33
2022-12-17T03:05:21.054Z,25.58
2022-12-17T03:07:22.543Z,21.85
2022-12-17T03:09:24.469Z,24.38
2022-12-17T03:11:28.498Z,18.75
2022-12-17T03:13:30.660Z,22.67
2022-12-17T03:15:32.505Z,21.13
2022-12-17T03:17:35.856Z,23.27
2022-12-17T03:19:40.560Z,24.00
2022-12-17T03:21:42.898Z,22.80
2022-12-17T03:23:44.743Z,20.58
2022-12-17T03:25:48.951Z,19.05
2022-12-17T03:27:51.086Z,22.27
2022-12-17T03:29:52.817Z,18.70
2022-12-17T03:31:54.644Z,21.60
2022-12-17T03:33:57.807Z,18.90
2022-12-17T03:35:59.561Z,19.65
2022-12-17T03:38:01.339Z,19.95
2022-12-17T03:40:03.313Z,23.48
2022-12-17T03:42:05.170Z,22.73
2022-12-17T03:44:07.060Z,25.58
2022-12-17T03:46:08.881Z,25.25
2022-12-17T03:48:12.480Z,21.92
2022-12-17T03:50:15.643Z,29.35
2022-12-17T03:52:17.552Z,23.30
2022-12-17T03:54:19.337Z,25.10
2022-12-17T03:56:21.403Z,19.38
2022-12-17T03:58:23.403Z,27.05
2022-12-17T04:00:25.167Z,22.70
2022-12-17T04:02:27.234Z,20.60
2022-12-17T04:04:29.229Z,21.23
2022-12-17T04:06:32.438Z,28.08
2022-12-17T04:08:34.378Z,24.17
2022-12-17T04:10:36.142Z,25.20
2022-12-17T04:12:37.976Z,23.70
2022-12-17T04:14:39.903Z,28.33
2022-12-17T04:16:41.767Z,21.85
2022-12-17T04:18:43.633Z,20.92
2022-12-17T04:20:45.393Z,20.73
2022-12-17T04:22:48.639Z,22.05
2022-12-17T04:24:50.368Z,26.05
2022-12-17T04:26:52.116Z,21.88
2022-12-17T04:28:54.152Z,19.60
2022-12-17T04:30:55.908Z,19.23
2022-12-17T04:32:57.863Z,20.75
2022-12-17T04:34:59.596Z,20.63
2022-12-17T04:37:01.280Z,20.17
2022-12-17T04:39:04.580Z,21.70
2022-12-17T04:41:06.567Z,19.70
2022-12-17T04:43:10.304Z,19.45
2022-12-17T04:45:12.072Z,20.80
2022-12-17T04:47:13.855Z,19.08
2022-12-17T04:49:15.626Z,20.40
2022-12-17T04:51:17.381Z,17.23
2022-12-17T04:53:19.430Z,20.00
2022-12-17T04:55:22.704Z,19.52
2022-12-17T04:57:24.415Z,18.45
2022-12-17T04:59:26.072Z,20.85
2022-12-17T05:01:27.875Z,18.13
2022-12-17T05:03:29.897Z,28.85
2022-12-17T05:05:31.967Z,19.92
2022-12-17T05:07:36.611Z,20.33
2022-12-17T05:09:38.342Z,19.08
2022-12-17T05:11:41.711Z,19.30
2022-12-17T05:13:43.551Z,19.42
2022-12-17T05:15:51.353Z,24.15
2022-12-17T05:17:55.182Z,21.70
2022-12-17T05:19:59.428Z,23.20
2022-12-17T05:22:01.229Z,23.95
2022-12-17T05:24:03.154Z,23.08
2022-12-17T05:26:06.211Z,24.25
2022-12-17T05:28:11.990Z,27.33
2022-12-17T05:30:14.047Z,20.63
2022-12-17T05:32:15.749Z,19.17
2022-12-17T05:34:17.631Z,22.75
2022-12-17T05:36:20.916Z,24.00
2022-12-17T05:38:22.696Z,21.75
2022-12-17T05:40:24.475Z,23.42
2022-12-17T05:42:26.207Z,21.40
2022-12-17T05:44:29.345Z,20.35
2022-12-17T05:46:31.157Z,19.60
2022-12-17T05:48:33.883Z,26.42
2022-12-17T05:50:35.706Z,24.98
2022-12-17T05:52:37.389Z,22.77
2022-12-17T05:54:39.187Z,23.30
2022-12-17T05:56:40.870Z,19.05
2022-12-17T05:58:42.588Z,21.80
2022-12-17T06:00:45.735Z,20.95
2022-12-17T06:02:47.518Z,21.25
2022-12-17T06:04:49.692Z,20.40
2022-12-17T06:06:51.326Z,21.23
2022-12-17T06:08:54.291Z,20.13
2022-12-17T06:10:59.081Z,19.30
2022-12-17T06:13:00.808Z,17.27
2022-12-17T06:15:02.803Z,19.65
2022-12-17T06:17:06.232Z,19.23
2022-12-17T06:19:07.985Z,22.98
2022-12-17T06:21:09.691Z,17.55
2022-12-17T06:23:11.343Z,17.67
2022-12-17T06:25:13.070Z,23.15
2022-12-17T06:27:15.240Z,18.98
2022-12-17T06:29:17.005Z,18.50
2022-12-17T06:31:18.815Z,22.13
2022-12-17T06:33:22.876Z,21.48
2022-12-17T06:35:24.627Z,20.13
2022-12-17T06:37:26.809Z,20.98
2022-12-17T06:39:29.440Z,25.70
2022-12-17T06:41:31.095Z,20.17
2022-12-17T06:43:33.613Z,22.92
2022-12-17T06:45:35.744Z,23.65
2022-12-17T06:47:37.343Z,21.33
2022-12-17T06:49:41.074Z,17.63
2022-12-17T06:51:42.789Z,23.08
2022-12-17T06:53:44.522Z,23.05
2022-12-17T06:55:46.582Z,22.85
2022-12-17T06:57:50.454Z,23.75
2022-12-17T06:59:52.454Z,23.92
2022-12-17T07:01:55.001Z,23.70
2022-12-17T07:03:56.744Z,18.63
2022-12-17T07:06:01.570Z,25.23
2022-12-17T07:08:03.646Z,22.23
2022-12-17T07:10:13.628Z,20.42
2022-12-17T07:12:16.158Z,23.17
2022-12-17T07:14:18.209Z,27.90
2022-12-17T07:16:19.989Z,26.15
2022-12-17T07:18:22.061Z,30.30
2022-12-17T07:20:23.981Z,32.65
2022-12-17T07:22:27.501Z,37.17
2022-12-17T07:24:31.584Z,35.38
2022-12-17T07:26:33.574Z,33.97
2022-12-17T07:28:35.463Z,32.10
2022-12-17T07:30:37.212Z,32.72
2022-12-17T07:32:38.966Z,36.22
2022-12-17T07:34:40.671Z,32.92
2022-12-17T07:36:42.568Z,30.92
2022-12-17T07:38:46.117Z,26.02
2022-12-17T07:40:47.745Z,33.75
2022-12-17T07:42:49.753Z,26.60
2022-12-17T07:44:51.501Z,29.45
2022-12-17T07:46:55.527Z,34.72
2022-12-17T07:48:57.359Z,29.10
2022-12-17T07:51:01.699Z,36.33
2022-12-17T07:53:06.400Z,43.90
2022-12-17T07:55:15.392Z,76.97
2022-12-17T07:57:19.900Z,34.75
2022-12-17T07:59:21.904Z,42.83
2022-12-17T08:01:23.771Z,99.82
2022-12-17T08:03:27.580Z,50.53
2022-12-17T08:05:29.436Z,73.68
2022-12-17T08:07:31.277Z,87.07
2022-12-17T08:09:33.095Z,57.35
2022-12-17T08:11:38.901Z,50.33
2022-12-17T08:13:40.869Z,56.78
2022-12-17T08:15:58.883Z,53.50
2022-12-17T08:18:02.235Z,47.92
2022-12-17T08:20:05.557Z,34.85
2022-12-17T08:22:07.532Z,55.42
2022-12-17T08:24:09.473Z,51.70
2022-12-17T08:26:11.270Z,35.80
2022-12-17T08:28:41.291Z,35.03
2022-12-17T08:30:36.687Z,36.22
2022-12-17T08:32:38.938Z,33.58
2022-12-17T08:34:40.644Z,31.45
2022-12-17T08:36:42.468Z,43.55
2022-12-17T08:38:45.570Z,34.53
2022-12-17T08:40:47.435Z,30.67
2022-12-17T08:42:55.782Z,30.23
2022-12-17T08:44:59.281Z,37.80
2022-12-17T08:47:03.462Z,40.03
2022-12-17T08:49:05.397Z,36.55
2022-12-17T08:51:07.201Z,28.25
2022-12-17T08:53:09.031Z,31.58
2022-12-17T08:55:10.751Z,30.85
2022-12-17T08:57:12.550Z,34.42
2022-12-17T08:59:14.321Z,38.67
2022-12-17T09:01:18.049Z,35.35
2022-12-17T09:03:20.082Z,27.33
2022-12-17T09:05:21.983Z,29.60
2022-12-17T09:07:34.747Z,49.72
2022-12-17T09:09:36.404Z,30.60
2022-12-17T09:11:38.158Z,35.38
2022-12-17T09:13:40.073Z,34.67
2022-12-17T09:15:41.822Z,31.80
2022-12-17T09:17:45.097Z,27.25
2022-12-17T09:19:46.871Z,30.92
2022-12-17T09:21:48.584Z,36.10
2022-12-17T09:23:50.290Z,40.30
2022-12-17T09:25:58.212Z,31.65
2022-12-17T09:28:03.360Z,31.65
2022-12-17T09:30:06.271Z,37.33
2022-12-17T09:32:08.200Z,50.85
2022-12-17T09:34:11.853Z,36.38
2022-12-17T09:36:15.314Z,39.05
2022-12-17T09:38:17.100Z,34.88
2022-12-17T09:40:22.947Z,34.65
2022-12-17T09:42:30.388Z,34.45
2022-12-17T09:44:41.178Z,35.45
2022-12-17T09:46:51.048Z,33.30
2022-12-17T09:49:00.745Z,32.75
2022-12-17T09:51:04.661Z,40.80
2022-12-17T09:53:20.490Z,33.95
2022-12-17T09:55:27.274Z,35.45
2022-12-17T09:57:33.644Z,41.80
2022-12-17T09:59:43.677Z,31.73
2022-12-17T10:01:45.770Z,30.85
2022-12-17T10:03:49.469Z,29.95
2022-12-17T10:05:51.290Z,35.78
2022-12-17T10:07:55.143Z,37.97
2022-12-17T10:10:02.116Z,35.63
2022-12-17T10:12:13.481Z,34.25
2022-12-17T10:14:18.166Z,31.85
2022-12-17T10:16:27.489Z,35.85
2022-12-17T10:18:31.726Z,30.27
2022-12-17T10:20:38.459Z,41.28
2022-12-17T10:22:44.537Z,40.63
2022-12-17T10:24:49.931Z,31.55
2022-12-17T10:26:51.713Z,43.58
2022-12-17T10:29:02.783Z,37.10
2022-12-17T10:31:09.575Z,33.15
2022-12-17T10:33:18.405Z,41.38
2022-12-17T10:35:21.685Z,39.55
2022-12-17T10:37:27.707Z,34.20
2022-12-17T10:39:30.988Z,35.95
2022-12-17T10:41:37.491Z,34.38
2022-12-17T10:43:40.606Z,37.00
2022-12-17T10:45:54.839Z,34.63
2022-12-17T10:47:57.107Z,30.73
2022-12-17T10:50:00.609Z,35.70
2022-12-17T10:52:05.892Z,36.63
2022-12-17T10:54:19.938Z,38.58
2022-12-17T10:56:29.183Z,33.78
2022-12-17T10:58:33.238Z,39.45
2022-12-17T11:00:37.766Z,40.60
2022-12-17T11:02:39.808Z,33.72
2022-12-17T11:04:51.393Z,38.88
2022-12-17T11:06:56.148Z,34.50
2022-12-17T11:09:02.327Z,41.33
2022-12-17T11:11:12.688Z,43.70
2022-12-17T11:13:30.265Z,43.30
2022-12-17T11:15:38.269Z,43.25
2022-12-17T11:17:42.173Z,50.63
2022-12-17T11:19:49.275Z,49.55
2022-12-17T11:21:54.430Z,47.75
2022-12-17T11:23:59.499Z,45.00
2022-12-17T11:26:06.163Z,49.90
2022-12-17T11:28:17.789Z,45.58
2022-12-17T11:30:19.752Z,52.42
2022-12-17T11:32:55.305Z,48.78
2022-12-17T11:35:07.603Z,52.88
2022-12-17T11:37:17.684Z,53.40
2022-12-17T11:39:39.798Z,54.08
2022-12-17T11:41:54.685Z,56.30
2022-12-17T11:44:04.070Z,64.38
2022-12-17T11:46:18.074Z,61.42
2022-12-17T11:48:29.079Z,49.75
2022-12-17T11:50:41.008Z,62.53
2022-12-17T11:52:50.289Z,59.40
2022-12-17T11:54:59.311Z,92.70
2022-12-17T11:57:08.360Z,54.22
2022-12-17T11:59:23.426Z,47.22
2022-12-17T12:01:33.324Z,49.70
2022-12-17T12:03:48.756Z,50.80
2022-12-17T12:05:58.959Z,45.33
2022-12-17T12:08:10.839Z,45.13
2022-12-17T12:10:20.100Z,44.38
2022-12-17T12:12:34.720Z,51.08
2022-12-17T12:14:48.264Z,51.47
2022-12-17T12:16:56.112Z,53.38
2022-12-17T12:19:11.288Z,54.13
2022-12-17T12:21:25.573Z,35.83
2022-12-17T12:23:38.815Z,43.05
2022-12-17T12:25:52.586Z,47.83
2022-12-17T12:28:06.472Z,51.65
2022-12-17T12:30:15.492Z,46.42
2022-12-17T12:32:26.676Z,57.20
2022-12-17T12:34:33.781Z,56.45
2022-12-17T12:36:38.314Z,52.10
2022-12-17T12:38:46.652Z,58.08
2022-12-17T12:41:03.159Z,53.03
2022-12-17T12:43:21.492Z,48.90
2022-12-17T12:45:37.577Z,49.85
2022-12-17T12:47:48.138Z,50.30
2022-12-17T12:49:59.030Z,44.30
2022-12-17T12:52:01.235Z,44.65
2022-12-17T12:54:22.768Z,50.85
2022-12-17T12:56:56.033Z,37.38
2022-12-17T12:58:58.139Z,42.03
2022-12-17T13:01:02.262Z,37.85
2022-12-17T13:03:21.448Z,42.75
2022-12-17T13:05:32.645Z,47.80
2022-12-17T13:07:34.382Z,40.88
2022-12-17T13:09:48.407Z,46.60
2022-12-17T13:11:55.602Z,36.15
2022-12-17T13:14:06.457Z,37.05
2022-12-17T13:16:33.191Z,34.92
2022-12-17T13:18:37.887Z,42.85
2022-12-17T13:20:41.927Z,33.60
2022-12-17T13:22:50.484Z,47.22
2022-12-17T13:25:09.340Z,44.75
2022-12-17T13:27:27.900Z,40.95
2022-12-17T13:29:34.717Z,39.85
2022-12-17T13:31:48.405Z,51.58
2022-12-17T13:33:58.983Z,49.60
2022-12-17T13:36:13.432Z,44.88
2022-12-17T13:38:23.515Z,39.88
2022-12-17T13:40:37.497Z,46.88
2022-12-17T13:42:39.924Z,46.83
2022-12-17T13:44:46.468Z,37.30
2022-12-17T13:46:54.769Z,46.33
2022-12-17T13:48:58.725Z,36.40
2022-12-17T13:51:05.732Z,36.50
2022-12-17T13:53:11.521Z,35.97
2022-12-17T13:55:21.736Z,39.25
2022-12-17T13:57:26.198Z,38.42
2022-12-17T13:59:30.908Z,40.63
2022-12-17T14:01:33.154Z,38.45
2022-12-17T14:04:05.815Z,37.65
2022-12-17T14:05:59.903Z,41.97
2022-12-17T14:08:05.130Z,34.50
2022-12-17T14:10:15.160Z,40.88
2022-12-17T14:12:19.552Z,41.53
2022-12-17T14:14:31.973Z,38.60
2022-12-17T14:16:33.817Z,48.55
2022-12-17T14:18:40.013Z,44.17
2022-12-17T14:20:42.284Z,38.50
2022-12-17T14:22:51.282Z,43.20
2022-12-17T14:24:55.080Z,41.10
2022-12-17T14:26:59.199Z,38.40
2022-12-17T14:29:00.959Z,39.30
2022-12-17T14:33:31.171Z,41.67
2022-12-17T14:35:36.298Z,42.10
2022-12-17T14:37:38.020Z,42.13
2022-12-17T14:39:45.512Z,42.15
2022-12-17T14:41:49.418Z,38.55
2022-12-17T14:43:56.457Z,41.17
2022-12-17T14:46:01.427Z,47.65
2022-12-17T14:48:03.687Z,46.80
2022-12-17T14:50:07.971Z,36.72
2022-12-17T14:52:15.340Z,45.20
2022-12-17T14:54:21.635Z,38.33
2022-12-17T14:56:24.024Z,34.13
2022-12-17T14:58:27.991Z,75.70
2022-12-17T15:00:29.901Z,43.33
2022-12-17T15:02:32.217Z,37.92
2022-12-17T15:04:36.831Z,41.78
2022-12-17T15:06:38.537Z,48.33
2022-12-17T15:08:42.335Z,39.33
2022-12-17T15:10:44.278Z,53.30
2022-12-17T15:12:46.097Z,73.38
2022-12-17T15:14:49.520Z,41.05
2022-12-17T15:16:51.348Z,36.47
2022-12-17T15:18:53.192Z,47.58
2022-12-17T15:20:55.211Z,41.38
2022-12-17T15:22:56.958Z,37.22
2022-12-17T15:24:58.785Z,37.22
2022-12-17T15:27:00.574Z,42.92
2022-12-17T15:29:02.314Z,50.60
2022-12-17T15:31:09.544Z,41.90
2022-12-17T15:33:11.659Z,44.97
2022-12-17T15:35:14.440Z,40.75
2022-12-17T15:37:21.071Z,43.25
2022-12-17T15:39:25.830Z,46.45
2022-12-17T15:41:27.682Z,52.10
2022-12-17T15:43:34.513Z,46.28
2022-12-17T15:45:37.065Z,57.30
2022-12-17T15:47:40.560Z,44.03
2022-12-17T15:49:42.508Z,53.90
2022-12-17T15:51:44.497Z,48.67
2022-12-17T15:53:46.323Z,41.65
2022-12-17T15:55:48.177Z,40.80
2022-12-17T15:57:50.049Z,48.80
2022-12-17T15:59:52.178Z,44.05
2022-12-17T16:01:54.022Z,44.22
2022-12-17T16:03:58.108Z,48.88
2022-12-17T16:06:01.643Z,46.20
2022-12-17T16:08:03.439Z,55.58
2022-12-17T16:10:06.392Z,48.75
2022-12-17T16:12:08.199Z,40.13
2022-12-17T16:14:10.477Z,40.60
2022-12-17T16:16:12.282Z,52.83
2022-12-17T16:18:14.091Z,44.85
2022-12-17T16:20:17.391Z,41.35
2022-12-17T16:22:19.166Z,46.55
2022-12-17T16:24:21.029Z,44.53
2022-12-17T16:26:22.990Z,46.25
2022-12-17T16:28:25.019Z,42.90
2022-12-17T16:30:27.121Z,56.03
2022-12-17T16:32:34.565Z,56.17
2022-12-17T16:34:38.060Z,45.95
2022-12-17T16:36:42.083Z,50.15
2022-12-17T16:38:45.143Z,51.55
2022-12-17T16:40:47.207Z,60.17
2022-12-17T16:42:50.342Z,47.35
2022-12-17T16:44:52.043Z,51.67
2022-12-17T16:46:53.919Z,54.58
2022-12-17T16:48:57.881Z,42.33
2022-12-17T16:50:59.790Z,44.13
2022-12-17T16:53:03.697Z,48.95
2022-12-17T16:55:06.213Z,48.63
2022-12-17T16:57:08.273Z,44.85
2022-12-17T16:59:12.349Z,50.20
2022-12-17T17:01:18.557Z,53.10
2022-12-17T17:03:20.727Z,45.92
2022-12-17T17:05:22.769Z,43.42
2022-12-17T17:07:24.555Z,45.47
2022-12-17T17:09:29.687Z,48.22
2022-12-17T17:11:31.447Z,46.30
2022-12-17T17:13:33.679Z,48.53
2022-12-17T17:15:35.431Z,53.28
2022-12-17T17:17:53.778Z,48.92
2022-12-17T17:19:57.973Z,46.53
2022-12-17T17:22:00.088Z,43.58
2022-12-17T17:24:03.447Z,44.28
2022-12-17T17:26:07.700Z,52.35
2022-12-17T17:28:12.334Z,47.28
2022-12-17T17:30:14.578Z,49.88
2022-12-17T17:32:16.408Z,41.90
2022-12-17T17:34:18.300Z,46.92
2022-12-17T17:36:22.877Z,39.78
2022-12-17T17:38:24.747Z,44.92
2022-12-17T17:40:26.486Z,45.00
2022-12-17T17:42:29.860Z,49.88
2022-12-17T17:44:31.944Z,47.38
2022-12-17T17:46:35.278Z,47.17
2022-12-17T17:48:38.197Z,42.67
2022-12-17T17:50:40.575Z,53.95
2022-12-17T17:52:42.437Z,46.88
2022-12-17T17:54:44.251Z,46.28
2022-12-17T17:56:46.283Z,43.70
2022-12-17T17:58:52.165Z,48.25
2022-12-17T18:00:54.034Z,47.30
2022-12-17T18:02:56.264Z,64.22
2022-12-17T18:05:01.410Z,52.45
2022-12-17T18:09:25.444Z,52.50
2022-12-17T18:11:29.935Z,46.17
2022-12-17T18:13:33.531Z,55.58
2022-12-17T18:15:36.856Z,47.80
2022-12-17T18:17:38.913Z,43.35
2022-12-17T18:19:40.747Z,46.47
2022-12-17T18:21:44.600Z,43.00
2022-12-17T18:23:47.557Z,42.50
2022-12-17T18:25:49.353Z,39.70
2022-12-17T18:27:52.371Z,47.05
2022-12-17T18:29:54.428Z,45.97
2022-12-17T18:32:02.546Z,43.75
2022-12-17T18:34:05.452Z,45.88
2022-12-17T18:36:12.356Z,50.45
2022-12-17T18:38:14.002Z,52.47
2022-12-17T18:40:15.812Z,55.45
2022-12-17T18:42:17.573Z,53.60
2022-12-17T18:44:20.683Z,47.38
2022-12-17T18:46:23.567Z,56.22
2022-12-17T18:48:26.949Z,54.38
2022-12-17T18:50:28.819Z,77.53
2022-12-17T18:52:30.675Z,59.85
2022-12-17T18:54:32.799Z,45.90
2022-12-17T18:57:00.072Z,49.88
2022-12-17T18:58:57.924Z,45.22
2022-12-17T19:01:00.098Z,65.45
2022-12-17T19:03:02.319Z,66.80
2022-12-17T19:05:06.318Z,61.95
2022-12-17T19:07:08.089Z,55.28
2022-12-17T19:09:17.345Z,58.50
2022-12-17T19:11:20.663Z,50.22
2022-12-17T19:13:23.497Z,67.53
2022-12-17T19:15:28.309Z,55.72
2022-12-17T19:17:30.401Z,55.00
2022-12-17T19:19:35.123Z,53.67
2022-12-17T19:21:38.582Z,51.50
2022-12-17T19:23:40.819Z,43.40
2022-12-17T19:25:42.590Z,46.95
2022-12-17T19:27:44.455Z,49.17
2022-12-17T19:29:49.370Z,46.70
2022-12-17T19:31:52.111Z,49.80
2022-12-17T19:33:55.146Z,44.28
2022-12-17T19:36:01.836Z,43.55
2022-12-17T19:38:05.286Z,57.63
2022-12-17T19:40:08.371Z,48.58
2022-12-17T19:42:10.432Z,48.92
2022-12-17T19:44:14.119Z,60.30
2022-12-17T19:46:18.487Z,47.25
2022-12-17T19:48:20.355Z,49.67
2022-12-17T19:50:22.154Z,52.55
2022-12-17T19:52:26.563Z,55.60
2022-12-17T19:54:29.899Z,59.25
2022-12-17T19:56:33.295Z,54.95
2022-12-17T19:58:35.671Z,57.92
2022-12-17T20:00:37.641Z,54.90
2022-12-17T20:02:40.479Z,59.75
2022-12-17T20:04:42.281Z,56.78
2022-12-17T20:06:45.559Z,51.83
2022-12-17T20:08:48.593Z,53.88
2022-12-17T20:10:51.818Z,48.88
2022-12-17T20:12:53.679Z,45.67
2022-12-17T20:14:55.352Z,84.05
2022-12-17T20:16:59.088Z,50.80
2022-12-17T20:19:02.430Z,54.50
2022-12-17T20:21:06.258Z,51.38
2022-12-17T20:23:08.025Z,50.28
2022-12-17T20:25:10.129Z,60.65
2022-12-17T20:27:13.294Z,51.15
2022-12-17T20:29:18.013Z,47.70
2022-12-17T20:31:20.259Z,50.72
2022-12-17T20:33:22.148Z,52.90
2022-12-17T20:35:24.016Z,38.97
2022-12-17T20:37:25.822Z,39.78
2022-12-17T20:39:28.420Z,62.63
2022-12-17T20:41:31.255Z,48.20
2022-12-17T20:43:34.776Z,48.45
2022-12-17T20:45:37.078Z,54.03
2022-12-17T20:47:38.851Z,54.95
2022-12-17T20:49:40.693Z,48.30
2022-12-17T20:51:42.636Z,88.65
2022-12-17T20:53:44.929Z,51.65
2022-12-17T20:55:47.025Z,54.70
2022-12-17T20:57:48.744Z,50.13
2022-12-17T20:59:55.435Z,58.13
2022-12-17T21:01:57.327Z,51.63
2022-12-17T21:03:59.881Z,74.63
2022-12-17T21:06:10.168Z,54.35
2022-12-17T21:08:12.098Z,52.50
2022-12-17T21:10:13.905Z,55.78
2022-12-17T21:12:15.797Z,81.90
2022-12-17T21:14:19.342Z,49.08
2022-12-17T21:16:25.895Z,43.08
2022-12-17T21:18:29.483Z,51.25
2022-12-17T21:20:31.518Z,49.25
2022-12-17T21:22:33.634Z,47.72
2022-12-17T21:24:35.506Z,50.35
2022-12-17T21:26:39.290Z,48.13
2022-12-17T21:28:43.271Z,46.45
2022-12-17T21:30:45.711Z,45.25
2022-12-17T21:32:49.260Z,51.75
2022-12-17T21:34:51.409Z,46.08
2022-12-17T21:36:54.749Z,44.92
2022-12-17T21:38:57.868Z,70.00
2022-12-17T21:41:05.257Z,192.20
2022-12-17T21:43:07.505Z,54.63
2022-12-17T21:45:09.978Z,55.55
2022-12-17T21:47:11.987Z,52.85
2022-12-17T21:49:15.595Z,53.42
2022-12-17T21:51:18.086Z,48.92
2022-12-17T21:53:20.848Z,53.05
2022-12-17T21:55:22.802Z,48.42
2022-12-17T21:57:25.273Z,47.13
2022-12-17T21:59:27.297Z,54.10
2022-12-17T22:01:33.518Z,48.92
2022-12-17T22:03:35.476Z,43.40
2022-12-17T22:05:41.696Z,49.58
2022-12-17T22:07:46.419Z,53.67
2022-12-17T22:10:10.695Z,55.92
2022-12-17T22:12:11.606Z,52.53
2022-12-17T22:14:20.683Z,50.35
2022-12-17T22:16:23.332Z,47.72
2022-12-17T22:18:25.177Z,52.53
2022-12-17T22:20:27.134Z,52.92
2022-12-17T22:22:30.653Z,53.17
2022-12-17T22:24:36.252Z,49.80
2022-12-17T22:26:38.792Z,51.00
2022-12-17T22:28:40.977Z,46.25
2022-12-17T22:30:43.028Z,49.90
2022-12-17T22:32:45.421Z,45.70
2022-12-17T22:35:24.299Z,48.88
2022-12-17T22:40:25.809Z,45.55
2022-12-17T22:43:58.299Z,44.97
2022-12-17T22:44:45.731Z,38.58
2022-12-17T22:44:46.138Z,45.22
2022-12-17T22:46:39.493Z,45.85
2022-12-17T22:48:41.353Z,53.15
2022-12-17T22:50:47.146Z,48.13
2022-12-17T22:53:05.695Z,56.13
2022-12-17T22:55:14.788Z,42.67
2022-12-17T22:57:36.775Z,43.85
2022-12-17T22:59:38.995Z,39.97
2022-12-17T23:01:41.994Z,50.15
2022-12-17T23:03:44.691Z,48.22
2022-12-17T23:05:46.750Z,49.38
2022-12-17T23:07:51.136Z,49.70
2022-12-17T23:09:52.952Z,46.15
2022-12-17T23:11:59.292Z,45.67
2022-12-17T23:14:07.687Z,44.83
2022-12-17T23:16:11.317Z,47.15
2022-12-17T23:18:13.166Z,44.53
2022-12-17T23:20:16.087Z,45.35
2022-12-17T23:22:22.232Z,52.33
2022-12-17T23:24:24.353Z,51.83
2022-12-17T23:26:28.357Z,39.15
2022-12-17T23:28:32.070Z,45.17
2022-12-17T23:30:35.958Z,43.33
2022-12-17T23:32:38.195Z,48.28
2022-12-17T23:34:40.195Z,43.00
2022-12-17T23:36:42.385Z,43.67
2022-12-17T23:38:44.914Z,44.67
2022-12-17T23:40:46.723Z,44.25
2022-12-17T23:42:48.565Z,49.63
2022-12-17T23:44:52.100Z,48.38
2022-12-17T23:46:53.848Z,43.83
2022-12-17T23:48:56.327Z,60.22
2022-12-17T23:50:59.018Z,49.75
2022-12-17T23:53:00.984Z,50.67
2022-12-17T23:55:04.275Z,45.63
2022-12-17T23:57:06.303Z,46.00
2022-12-17T23:59:09.508Z,44.13
